sensor_id;sensor_type;location;lat;lon;timestamp;P1;durP1;ratioP1;P2;durP2;ratioP2
15096;SDS011;7649;52.084;7.478;2023-02-15T00:01:54;21.17;;;16.37;;
15096;SDS011;7649;52.084;7.478;2023-02-15T00:04:23;19.20;;;15.53;;
15096;SDS011;7649;52.084;7.478;2023-02-15T00:07:16;19.37;;;16.20;;
15096;SDS011;7649;52.084;7.478;2023-02-15T00:09:45;23.63;;;17.03;;
15096;SDS011;7649;52.084;7.478;2023-02-15T00:12:14;19.83;;;15.20;;
15096;SDS011;7649;52.084;7.478;2023-02-15T00:14:42;20.80;;;16.63;;
15096;SDS011;7649;52.084;7.478;2023-02-15T00:17:10;18.50;;;15.60;;
15096;SDS011;7649;52.084;7.478;2023-02-15T00:19:39;21.23;;;15.53;;
15096;SDS011;7649;52.084;7.478;2023-02-15T00:22:07;19.00;;;15.20;;
15096;SDS011;7649;52.084;7.478;2023-02-15T00:24:36;17.13;;;14.03;;
15096;SDS011;7649;52.084;7.478;2023-02-15T00:27:05;18.17;;;15.33;;
15096;SDS011;7649;52.084;7.478;2023-02-15T00:29:35;17.53;;;14.87;;
15096;SDS011;7649;52.084;7.478;2023-02-15T00:32:03;17.33;;;15.20;;
15096;SDS011;7649;52.084;7.478;2023-02-15T00:37:04;18.00;;;14.87;;
15096;SDS011;7649;52.084;7.478;2023-02-15T00:39:33;21.23;;;16.50;;
15096;SDS011;7649;52.084;7.478;2023-02-15T00:42:03;18.83;;;15.03;;
15096;SDS011;7649;52.084;7.478;2023-02-15T00:44:31;16.30;;;14.57;;
15096;SDS011;7649;52.084;7.478;2023-02-15T00:46:59;18.83;;;15.47;;
15096;SDS011;7649;52.084;7.478;2023-02-15T00:49:28;19.80;;;16.07;;
15096;SDS011;7649;52.084;7.478;2023-02-15T00:51:56;18.30;;;15.90;;
15096;SDS011;7649;52.084;7.478;2023-02-15T00:54:24;19.07;;;16.13;;
15096;SDS011;7649;52.084;7.478;2023-02-15T00:56:52;20.17;;;16.80;;
15096;SDS011;7649;52.084;7.478;2023-02-15T00:59:22;20.00;;;15.70;;
15096;SDS011;7649;52.084;7.478;2023-02-15T01:01:50;18.73;;;15.47;;
15096;SDS011;7649;52.084;7.478;2023-02-15T01:04:18;20.30;;;16.30;;
15096;SDS011;7649;52.084;7.478;2023-02-15T01:06:47;17.00;;;14.97;;
15096;SDS011;7649;52.084;7.478;2023-02-15T01:09:15;21.43;;;15.23;;
15096;SDS011;7649;52.084;7.478;2023-02-15T01:11:43;18.47;;;15.33;;
15096;SDS011;7649;52.084;7.478;2023-02-15T01:14:12;21.43;;;15.13;;
15096;SDS011;7649;52.084;7.478;2023-02-15T01:16:42;18.50;;;16.10;;
15096;SDS011;7649;52.084;7.478;2023-02-15T01:19:10;21.30;;;16.07;;
15096;SDS011;7649;52.084;7.478;2023-02-15T01:21:38;19.57;;;16.23;;
15096;SDS011;7649;52.084;7.478;2023-02-15T01:24:10;20.83;;;16.40;;
15096;SDS011;7649;52.084;7.478;2023-02-15T01:26:39;22.43;;;18.37;;
15096;SDS011;7649;52.084;7.478;2023-02-15T01:29:07;24.20;;;16.40;;
15096;SDS011;7649;52.084;7.478;2023-02-15T01:31:35;20.27;;;17.57;;
15096;SDS011;7649;52.084;7.478;2023-02-15T01:34:06;21.00;;;16.10;;
15096;SDS011;7649;52.084;7.478;2023-02-15T01:36:35;18.37;;;16.20;;
15096;SDS011;7649;52.084;7.478;2023-02-15T01:39:03;18.77;;;16.60;;
15096;SDS011;7649;52.084;7.478;2023-02-15T01:41:31;18.33;;;16.33;;
15096;SDS011;7649;52.084;7.478;2023-02-15T01:44:00;19.37;;;15.73;;
15096;SDS011;7649;52.084;7.478;2023-02-15T01:46:30;21.43;;;16.17;;
15096;SDS011;7649;52.084;7.478;2023-02-15T01:49:02;20.90;;;15.60;;
15096;SDS011;7649;52.084;7.478;2023-02-15T01:51:33;20.67;;;16.93;;
15096;SDS011;7649;52.084;7.478;2023-02-15T01:54:04;18.33;;;16.17;;
15096;SDS011;7649;52.084;7.478;2023-02-15T01:56:33;18.70;;;16.37;;
15096;SDS011;7649;52.084;7.478;2023-02-15T01:59:03;18.33;;;15.33;;
15096;SDS011;7649;52.084;7.478;2023-02-15T02:01:32;19.93;;;16.07;;
15096;SDS011;7649;52.084;7.478;2023-02-15T02:04:02;20.20;;;16.37;;
15096;SDS011;7649;52.084;7.478;2023-02-15T02:06:35;22.30;;;16.77;;
15096;SDS011;7649;52.084;7.478;2023-02-15T02:09:04;22.37;;;17.50;;
15096;SDS011;7649;52.084;7.478;2023-02-15T02:11:32;23.53;;;18.07;;
15096;SDS011;7649;52.084;7.478;2023-02-15T02:14:01;19.83;;;16.83;;
15096;SDS011;7649;52.084;7.478;2023-02-15T02:16:32;20.40;;;16.53;;
15096;SDS011;7649;52.084;7.478;2023-02-15T02:19:10;20.40;;;17.03;;
15096;SDS011;7649;52.084;7.478;2023-02-15T02:27:33;17.80;;;15.87;;
15096;SDS011;7649;52.084;7.478;2023-02-15T02:32:53;19.97;;;15.40;;
15096;SDS011;7649;52.084;7.478;2023-02-15T02:35:29;16.93;;;15.13;;
15096;SDS011;7649;52.084;7.478;2023-02-15T02:38:00;16.43;;;14.73;;
15096;SDS011;7649;52.084;7.478;2023-02-15T02:40:34;18.30;;;15.13;;
15096;SDS011;7649;52.084;7.478;2023-02-15T02:43:05;16.33;;;14.10;;
15096;SDS011;7649;52.084;7.478;2023-02-15T02:45:39;18.70;;;15.20;;
15096;SDS011;7649;52.084;7.478;2023-02-15T02:48:12;18.83;;;15.60;;
15096;SDS011;7649;52.084;7.478;2023-02-15T02:50:41;19.90;;;16.10;;
15096;SDS011;7649;52.084;7.478;2023-02-15T02:53:10;19.47;;;15.20;;
15096;SDS011;7649;52.084;7.478;2023-02-15T02:55:39;18.07;;;15.33;;
15096;SDS011;7649;52.084;7.478;2023-02-15T02:58:11;18.37;;;16.30;;
15096;SDS011;7649;52.084;7.478;2023-02-15T03:00:44;16.60;;;14.80;;
15096;SDS011;7649;52.084;7.478;2023-02-15T03:03:16;19.20;;;15.17;;
15096;SDS011;7649;52.084;7.478;2023-02-15T03:05:48;17.30;;;14.87;;
15096;SDS011;7649;52.084;7.478;2023-02-15T03:08:18;19.33;;;15.77;;
15096;SDS011;7649;52.084;7.478;2023-02-15T03:10:48;20.57;;;16.37;;
15096;SDS011;7649;52.084;7.478;2023-02-15T03:13:19;21.17;;;16.33;;
15096;SDS011;7649;52.084;7.478;2023-02-15T03:15:48;23.40;;;17.03;;
15096;SDS011;7649;52.084;7.478;2023-02-15T03:18:37;25.37;;;18.80;;
15096;SDS011;7649;52.084;7.478;2023-02-15T03:21:07;23.83;;;18.07;;
15096;SDS011;7649;52.084;7.478;2023-02-15T03:23:48;23.13;;;18.03;;
15096;SDS011;7649;52.084;7.478;2023-02-15T03:26:17;21.90;;;16.87;;
15096;SDS011;7649;52.084;7.478;2023-02-15T03:28:47;21.67;;;17.00;;
15096;SDS011;7649;52.084;7.478;2023-02-15T03:31:17;22.37;;;18.17;;
15096;SDS011;7649;52.084;7.478;2023-02-15T03:33:49;25.90;;;17.97;;
15096;SDS011;7649;52.084;7.478;2023-02-15T03:36:18;25.17;;;18.23;;
15096;SDS011;7649;52.084;7.478;2023-02-15T03:38:49;27.37;;;19.40;;
15096;SDS011;7649;52.084;7.478;2023-02-15T03:41:18;30.13;;;20.40;;
15096;SDS011;7649;52.084;7.478;2023-02-15T03:43:48;24.47;;;17.97;;
15096;SDS011;7649;52.084;7.478;2023-02-15T03:46:19;27.07;;;17.97;;
15096;SDS011;7649;52.084;7.478;2023-02-15T03:48:51;28.57;;;19.73;;
15096;SDS011;7649;52.084;7.478;2023-02-15T03:51:21;27.73;;;20.20;;
15096;SDS011;7649;52.084;7.478;2023-02-15T03:54:03;52.43;;;21.43;;
15096;SDS011;7649;52.084;7.478;2023-02-15T03:56:33;38.97;;;19.67;;
15096;SDS011;7649;52.084;7.478;2023-02-15T03:59:02;36.17;;;18.93;;
15096;SDS011;7649;52.084;7.478;2023-02-15T04:01:52;50.53;;;19.87;;
15096;SDS011;7649;52.084;7.478;2023-02-15T04:04:28;41.60;;;20.23;;
15096;SDS011;7649;52.084;7.478;2023-02-15T04:06:57;37.17;;;19.67;;
15096;SDS011;7649;52.084;7.478;2023-02-15T04:09:25;22.17;;;16.70;;
15096;SDS011;7649;52.084;7.478;2023-02-15T04:12:12;28.90;;;15.27;;
15096;SDS011;7649;52.084;7.478;2023-02-15T04:14:40;26.47;;;14.97;;
15096;SDS011;7649;52.084;7.478;2023-02-15T04:17:26;17.93;;;14.07;;
15096;SDS011;7649;52.084;7.478;2023-02-15T04:19:56;30.87;;;13.80;;
15096;SDS011;7649;52.084;7.478;2023-02-15T04:22:42;20.37;;;13.13;;
15096;SDS011;7649;52.084;7.478;2023-02-15T04:25:28;15.90;;;12.10;;
15096;SDS011;7649;52.084;7.478;2023-02-15T04:27:56;17.17;;;12.20;;
15096;SDS011;7649;52.084;7.478;2023-02-15T04:30:25;49.67;;;13.80;;
15096;SDS011;7649;52.084;7.478;2023-02-15T04:32:53;18.77;;;13.57;;
15096;SDS011;7649;52.084;7.478;2023-02-15T04:35:24;31.83;;;13.20;;
15096;SDS011;7649;52.084;7.478;2023-02-15T04:37:52;34.07;;;13.80;;
15096;SDS011;7649;52.084;7.478;2023-02-15T04:40:22;68.03;;;14.67;;
15096;SDS011;7649;52.084;7.478;2023-02-15T04:42:50;24.23;;;12.90;;
15096;SDS011;7649;52.084;7.478;2023-02-15T04:45:18;25.03;;;13.40;;
15096;SDS011;7649;52.084;7.478;2023-02-15T04:47:47;35.97;;;13.23;;
15096;SDS011;7649;52.084;7.478;2023-02-15T04:50:16;31.17;;;13.30;;
15096;SDS011;7649;52.084;7.478;2023-02-15T04:52:45;26.73;;;14.07;;
15096;SDS011;7649;52.084;7.478;2023-02-15T04:55:14;48.23;;;14.53;;
15096;SDS011;7649;52.084;7.478;2023-02-15T04:57:42;23.77;;;14.23;;
15096;SDS011;7649;52.084;7.478;2023-02-15T05:00:10;41.23;;;15.63;;
15096;SDS011;7649;52.084;7.478;2023-02-15T05:02:39;47.87;;;16.33;;
15096;SDS011;7649;52.084;7.478;2023-02-15T05:05:07;64.00;;;18.57;;
15096;SDS011;7649;52.084;7.478;2023-02-15T05:07:39;30.33;;;17.50;;
15096;SDS011;7649;52.084;7.478;2023-02-15T05:10:09;29.50;;;16.10;;
15096;SDS011;7649;52.084;7.478;2023-02-15T05:12:37;25.57;;;15.63;;
15096;SDS011;7649;52.084;7.478;2023-02-15T05:15:06;21.27;;;16.97;;
15096;SDS011;7649;52.084;7.478;2023-02-15T05:17:34;29.63;;;23.17;;
15096;SDS011;7649;52.084;7.478;2023-02-15T05:20:03;23.90;;;18.07;;
15096;SDS011;7649;52.084;7.478;2023-02-15T05:22:31;25.23;;;19.17;;
15096;SDS011;7649;52.084;7.478;2023-02-15T05:24:59;27.23;;;20.93;;
15096;SDS011;7649;52.084;7.478;2023-02-15T05:27:47;21.37;;;17.60;;
15096;SDS011;7649;52.084;7.478;2023-02-15T05:30:33;22.03;;;17.90;;
15096;SDS011;7649;52.084;7.478;2023-02-15T05:33:01;23.97;;;18.17;;
15096;SDS011;7649;52.084;7.478;2023-02-15T05:35:29;25.33;;;20.67;;
15096;SDS011;7649;52.084;7.478;2023-02-15T05:37:58;22.73;;;19.57;;
15096;SDS011;7649;52.084;7.478;2023-02-15T05:40:26;24.93;;;18.87;;
15096;SDS011;7649;52.084;7.478;2023-02-15T05:42:56;21.83;;;18.10;;
15096;SDS011;7649;52.084;7.478;2023-02-15T05:45:25;28.77;;;17.40;;
15096;SDS011;7649;52.084;7.478;2023-02-15T05:47:53;24.43;;;18.07;;
15096;SDS011;7649;52.084;7.478;2023-02-15T05:50:24;21.57;;;17.27;;
15096;SDS011;7649;52.084;7.478;2023-02-15T05:52:52;21.33;;;17.00;;
15096;SDS011;7649;52.084;7.478;2023-02-15T05:55:21;21.33;;;16.33;;
15096;SDS011;7649;52.084;7.478;2023-02-15T05:57:49;27.00;;;17.63;;
15096;SDS011;7649;52.084;7.478;2023-02-15T06:00:19;35.23;;;18.37;;
15096;SDS011;7649;52.084;7.478;2023-02-15T06:02:47;26.10;;;17.73;;
15096;SDS011;7649;52.084;7.478;2023-02-15T06:05:15;28.80;;;17.00;;
15096;SDS011;7649;52.084;7.478;2023-02-15T06:07:44;22.77;;;17.33;;
15096;SDS011;7649;52.084;7.478;2023-02-15T06:10:12;36.30;;;19.13;;
15096;SDS011;7649;52.084;7.478;2023-02-15T06:12:40;30.87;;;19.33;;
15096;SDS011;7649;52.084;7.478;2023-02-15T06:15:09;29.37;;;18.13;;
15096;SDS011;7649;52.084;7.478;2023-02-15T06:17:38;32.57;;;17.60;;
15096;SDS011;7649;52.084;7.478;2023-02-15T06:20:09;29.53;;;16.70;;
15096;SDS011;7649;52.084;7.478;2023-02-15T06:22:37;26.90;;;18.47;;
15096;SDS011;7649;52.084;7.478;2023-02-15T06:25:05;23.03;;;17.67;;
15096;SDS011;7649;52.084;7.478;2023-02-15T06:27:36;23.33;;;18.07;;
15096;SDS011;7649;52.084;7.478;2023-02-15T06:30:05;26.23;;;17.47;;
15096;SDS011;7649;52.084;7.478;2023-02-15T06:32:34;28.47;;;17.87;;
15096;SDS011;7649;52.084;7.478;2023-02-15T06:35:04;19.77;;;16.23;;
15096;SDS011;7649;52.084;7.478;2023-02-15T06:37:32;27.47;;;17.03;;
15096;SDS011;7649;52.084;7.478;2023-02-15T06:40:01;19.63;;;17.47;;
15096;SDS011;7649;52.084;7.478;2023-02-15T06:42:30;23.23;;;18.33;;
15096;SDS011;7649;52.084;7.478;2023-02-15T06:44:58;21.33;;;17.43;;
15096;SDS011;7649;52.084;7.478;2023-02-15T06:47:26;20.53;;;16.43;;
15096;SDS011;7649;52.084;7.478;2023-02-15T06:49:55;21.27;;;17.67;;
15096;SDS011;7649;52.084;7.478;2023-02-15T06:52:25;21.60;;;18.03;;
15096;SDS011;7649;52.084;7.478;2023-02-15T06:54:54;18.00;;;16.03;;
15096;SDS011;7649;52.084;7.478;2023-02-15T06:57:23;21.53;;;17.90;;
15096;SDS011;7649;52.084;7.478;2023-02-15T06:59:51;23.37;;;19.73;;
15096;SDS011;7649;52.084;7.478;2023-02-15T07:02:19;22.67;;;17.70;;
15096;SDS011;7649;52.084;7.478;2023-02-15T07:04:47;22.80;;;18.07;;
15096;SDS011;7649;52.084;7.478;2023-02-15T07:07:16;21.80;;;18.07;;
15096;SDS011;7649;52.084;7.478;2023-02-15T07:09:46;19.17;;;17.13;;
15096;SDS011;7649;52.084;7.478;2023-02-15T07:12:14;24.97;;;18.70;;
15096;SDS011;7649;52.084;7.478;2023-02-15T07:15:00;21.80;;;17.60;;
15096;SDS011;7649;52.084;7.478;2023-02-15T07:17:33;23.97;;;19.57;;
15096;SDS011;7649;52.084;7.478;2023-02-15T07:20:02;24.67;;;20.83;;
15096;SDS011;7649;52.084;7.478;2023-02-15T07:22:31;25.17;;;18.77;;
15096;SDS011;7649;52.084;7.478;2023-02-15T07:25:02;21.57;;;18.57;;
15096;SDS011;7649;52.084;7.478;2023-02-15T07:27:31;24.00;;;18.93;;
15096;SDS011;7649;52.084;7.478;2023-02-15T07:29:59;25.67;;;19.77;;
15096;SDS011;7649;52.084;7.478;2023-02-15T07:32:28;23.03;;;17.97;;
15096;SDS011;7649;52.084;7.478;2023-02-15T07:34:57;25.40;;;19.57;;
15096;SDS011;7649;52.084;7.478;2023-02-15T07:37:25;24.90;;;18.90;;
15096;SDS011;7649;52.084;7.478;2023-02-15T07:39:54;23.80;;;19.17;;
15096;SDS011;7649;52.084;7.478;2023-02-15T07:42:24;24.73;;;19.40;;
15096;SDS011;7649;52.084;7.478;2023-02-15T07:44:52;23.33;;;19.17;;
15096;SDS011;7649;52.084;7.478;2023-02-15T07:47:22;23.87;;;18.83;;
15096;SDS011;7649;52.084;7.478;2023-02-15T07:49:50;25.13;;;17.77;;
15096;SDS011;7649;52.084;7.478;2023-02-15T07:52:20;20.33;;;16.23;;
15096;SDS011;7649;52.084;7.478;2023-02-15T07:54:50;19.33;;;15.57;;
15096;SDS011;7649;52.084;7.478;2023-02-15T07:57:19;23.17;;;16.60;;
15096;SDS011;7649;52.084;7.478;2023-02-15T07:59:51;21.53;;;16.03;;
15096;SDS011;7649;52.084;7.478;2023-02-15T08:02:29;21.33;;;15.80;;
15096;SDS011;7649;52.084;7.478;2023-02-15T08:04:58;19.47;;;15.27;;
15096;SDS011;7649;52.084;7.478;2023-02-15T08:07:26;18.23;;;15.80;;
15096;SDS011;7649;52.084;7.478;2023-02-15T08:09:54;19.77;;;15.33;;
15096;SDS011;7649;52.084;7.478;2023-02-15T08:12:23;18.40;;;15.37;;
15096;SDS011;7649;52.084;7.478;2023-02-15T08:14:55;21.60;;;15.10;;
15096;SDS011;7649;52.084;7.478;2023-02-15T08:17:23;17.63;;;15.37;;
15096;SDS011;7649;52.084;7.478;2023-02-15T08:19:51;18.90;;;15.13;;
15096;SDS011;7649;52.084;7.478;2023-02-15T08:22:20;19.43;;;14.93;;
15096;SDS011;7649;52.084;7.478;2023-02-15T08:24:48;16.30;;;14.17;;
15096;SDS011;7649;52.084;7.478;2023-02-15T08:27:16;19.97;;;14.47;;
15096;SDS011;7649;52.084;7.478;2023-02-15T08:29:52;18.90;;;15.03;;
15096;SDS011;7649;52.084;7.478;2023-02-15T08:32:22;20.77;;;16.20;;
15096;SDS011;7649;52.084;7.478;2023-02-15T08:34:50;17.07;;;14.73;;
15096;SDS011;7649;52.084;7.478;2023-02-15T08:37:18;20.40;;;15.33;;
15096;SDS011;7649;52.084;7.478;2023-02-15T08:39:47;20.80;;;16.33;;
15096;SDS011;7649;52.084;7.478;2023-02-15T08:42:15;22.10;;;16.00;;
15096;SDS011;7649;52.084;7.478;2023-02-15T08:44:43;19.53;;;15.43;;
15096;SDS011;7649;52.084;7.478;2023-02-15T08:47:15;18.40;;;14.93;;
15096;SDS011;7649;52.084;7.478;2023-02-15T08:49:44;18.70;;;15.00;;
15096;SDS011;7649;52.084;7.478;2023-02-15T08:52:13;20.83;;;15.50;;
15096;SDS011;7649;52.084;7.478;2023-02-15T08:54:41;18.33;;;14.43;;
15096;SDS011;7649;52.084;7.478;2023-02-15T08:57:09;19.27;;;14.97;;
15096;SDS011;7649;52.084;7.478;2023-02-15T08:59:44;18.73;;;15.27;;
15096;SDS011;7649;52.084;7.478;2023-02-15T09:02:12;17.37;;;14.47;;
15096;SDS011;7649;52.084;7.478;2023-02-15T09:04:40;18.53;;;14.33;;
15096;SDS011;7649;52.084;7.478;2023-02-15T09:07:10;17.23;;;14.90;;
15096;SDS011;7649;52.084;7.478;2023-02-15T09:09:38;18.27;;;15.47;;
15096;SDS011;7649;52.084;7.478;2023-02-15T09:12:07;16.93;;;14.80;;
15096;SDS011;7649;52.084;7.478;2023-02-15T09:14:35;17.03;;;14.33;;
15096;SDS011;7649;52.084;7.478;2023-02-15T09:17:03;20.60;;;15.70;;
15096;SDS011;7649;52.084;7.478;2023-02-15T09:19:32;19.27;;;15.17;;
15096;SDS011;7649;52.084;7.478;2023-02-15T09:22:00;19.50;;;15.57;;
15096;SDS011;7649;52.084;7.478;2023-02-15T09:24:31;16.73;;;14.97;;
15096;SDS011;7649;52.084;7.478;2023-02-15T09:26:59;19.50;;;15.07;;
15096;SDS011;7649;52.084;7.478;2023-02-15T09:29:28;18.50;;;14.97;;
15096;SDS011;7649;52.084;7.478;2023-02-15T09:31:56;20.07;;;14.73;;
15096;SDS011;7649;52.084;7.478;2023-02-15T09:34:24;18.43;;;14.73;;
15096;SDS011;7649;52.084;7.478;2023-02-15T09:36:53;19.57;;;15.13;;
15096;SDS011;7649;52.084;7.478;2023-02-15T09:39:21;17.83;;;15.27;;
15096;SDS011;7649;52.084;7.478;2023-02-15T09:41:57;19.47;;;15.27;;
15096;SDS011;7649;52.084;7.478;2023-02-15T09:44:31;18.13;;;14.70;;
15096;SDS011;7649;52.084;7.478;2023-02-15T09:47:07;20.70;;;16.30;;
15096;SDS011;7649;52.084;7.478;2023-02-15T09:49:40;18.43;;;15.40;;
15096;SDS011;7649;52.084;7.478;2023-02-15T09:52:21;19.37;;;16.07;;
15096;SDS011;7649;52.084;7.478;2023-02-15T09:54:57;19.00;;;15.07;;
15096;SDS011;7649;52.084;7.478;2023-02-15T09:57:32;21.77;;;16.73;;
15096;SDS011;7649;52.084;7.478;2023-02-15T10:00:04;19.03;;;16.43;;
15096;SDS011;7649;52.084;7.478;2023-02-15T10:02:38;20.00;;;16.77;;
15096;SDS011;7649;52.084;7.478;2023-02-15T10:05:16;19.37;;;15.57;;
15096;SDS011;7649;52.084;7.478;2023-02-15T10:07:52;19.03;;;16.20;;
15096;SDS011;7649;52.084;7.478;2023-02-15T10:10:30;19.33;;;16.40;;
15096;SDS011;7649;52.084;7.478;2023-02-15T10:13:05;20.43;;;16.63;;
15096;SDS011;7649;52.084;7.478;2023-02-15T10:15:44;19.53;;;16.67;;
15096;SDS011;7649;52.084;7.478;2023-02-15T10:18:22;19.00;;;16.13;;
15096;SDS011;7649;52.084;7.478;2023-02-15T10:20:55;23.40;;;17.33;;
15096;SDS011;7649;52.084;7.478;2023-02-15T10:23:32;19.73;;;17.33;;
15096;SDS011;7649;52.084;7.478;2023-02-15T10:26:04;21.63;;;17.83;;
15096;SDS011;7649;52.084;7.478;2023-02-15T10:28:42;23.60;;;18.37;;
15096;SDS011;7649;52.084;7.478;2023-02-15T10:31:16;21.93;;;19.10;;
15096;SDS011;7649;52.084;7.478;2023-02-15T10:33:47;23.43;;;20.27;;
15096;SDS011;7649;52.084;7.478;2023-02-15T10:36:19;24.83;;;19.13;;
15096;SDS011;7649;52.084;7.478;2023-02-15T10:38:51;24.90;;;18.70;;
15096;SDS011;7649;52.084;7.478;2023-02-15T10:41:27;24.77;;;19.53;;
15096;SDS011;7649;52.084;7.478;2023-02-15T10:44:06;22.77;;;19.27;;
15096;SDS011;7649;52.084;7.478;2023-02-15T10:46:55;23.20;;;18.97;;
15096;SDS011;7649;52.084;7.478;2023-02-15T10:49:32;26.27;;;19.97;;
15096;SDS011;7649;52.084;7.478;2023-02-15T10:52:07;26.40;;;20.90;;
15096;SDS011;7649;52.084;7.478;2023-02-15T10:54:40;25.10;;;19.53;;
15096;SDS011;7649;52.084;7.478;2023-02-15T10:57:13;24.00;;;20.23;;
15096;SDS011;7649;52.084;7.478;2023-02-15T11:02:45;23.77;;;20.23;;
15096;SDS011;7649;52.084;7.478;2023-02-15T11:05:26;24.87;;;20.07;;
15096;SDS011;7649;52.084;7.478;2023-02-15T11:07:58;27.07;;;20.60;;
15096;SDS011;7649;52.084;7.478;2023-02-15T11:10:28;23.93;;;19.53;;
15096;SDS011;7649;52.084;7.478;2023-02-15T11:12:58;27.67;;;20.63;;
15096;SDS011;7649;52.084;7.478;2023-02-15T11:15:30;29.17;;;20.70;;
15096;SDS011;7649;52.084;7.478;2023-02-15T11:18:04;25.17;;;20.70;;
15096;SDS011;7649;52.084;7.478;2023-02-15T11:20:35;23.87;;;20.77;;
15096;SDS011;7649;52.084;7.478;2023-02-15T11:23:07;25.03;;;21.70;;
15096;SDS011;7649;52.084;7.478;2023-02-15T11:25:41;26.10;;;20.70;;
15096;SDS011;7649;52.084;7.478;2023-02-15T11:28:12;25.83;;;21.20;;
15096;SDS011;7649;52.084;7.478;2023-02-15T11:30:45;25.33;;;21.00;;
15096;SDS011;7649;52.084;7.478;2023-02-15T11:33:20;26.43;;;20.73;;
15096;SDS011;7649;52.084;7.478;2023-02-15T11:35:51;27.10;;;20.63;;
15096;SDS011;7649;52.084;7.478;2023-02-15T11:38:22;24.23;;;19.93;;
15096;SDS011;7649;52.084;7.478;2023-02-15T11:40:52;27.77;;;21.43;;
15096;SDS011;7649;52.084;7.478;2023-02-15T11:43:24;27.80;;;21.13;;
15096;SDS011;7649;52.084;7.478;2023-02-15T11:45:55;27.63;;;20.83;;
15096;SDS011;7649;52.084;7.478;2023-02-15T11:48:25;26.70;;;20.93;;
15096;SDS011;7649;52.084;7.478;2023-02-15T11:50:53;29.57;;;23.87;;
15096;SDS011;7649;52.084;7.478;2023-02-15T11:53:22;26.03;;;21.40;;
15096;SDS011;7649;52.084;7.478;2023-02-15T11:55:53;28.97;;;21.73;;
15096;SDS011;7649;52.084;7.478;2023-02-15T11:58:25;26.30;;;20.70;;
15096;SDS011;7649;52.084;7.478;2023-02-15T12:00:56;30.23;;;20.73;;
15096;SDS011;7649;52.084;7.478;2023-02-15T12:03:29;26.60;;;19.83;;
15096;SDS011;7649;52.084;7.478;2023-02-15T12:06:03;29.63;;;21.70;;
15096;SDS011;7649;52.084;7.478;2023-02-15T12:08:37;29.40;;;21.60;;
15096;SDS011;7649;52.084;7.478;2023-02-15T12:11:06;27.20;;;21.20;;
15096;SDS011;7649;52.084;7.478;2023-02-15T12:13:46;29.47;;;21.20;;
15096;SDS011;7649;52.084;7.478;2023-02-15T12:16:21;28.47;;;21.00;;
15096;SDS011;7649;52.084;7.478;2023-02-15T12:18:51;26.90;;;20.63;;
15096;SDS011;7649;52.084;7.478;2023-02-15T12:21:27;33.10;;;22.00;;
15096;SDS011;7649;52.084;7.478;2023-02-15T12:23:56;28.07;;;21.10;;
15096;SDS011;7649;52.084;7.478;2023-02-15T12:26:26;27.73;;;21.10;;
15096;SDS011;7649;52.084;7.478;2023-02-15T12:28:55;27.37;;;20.23;;
15096;SDS011;7649;52.084;7.478;2023-02-15T12:31:30;26.87;;;20.13;;
15096;SDS011;7649;52.084;7.478;2023-02-15T12:34:01;27.10;;;21.33;;
15096;SDS011;7649;52.084;7.478;2023-02-15T12:36:32;27.87;;;20.20;;
15096;SDS011;7649;52.084;7.478;2023-02-15T12:39:19;30.40;;;19.87;;
15096;SDS011;7649;52.084;7.478;2023-02-15T12:41:59;26.45;;;19.23;;
15096;SDS011;7649;52.084;7.478;2023-02-15T12:44:28;27.58;;;20.23;;
15096;SDS011;7649;52.084;7.478;2023-02-15T12:46:57;27.10;;;19.97;;
15096;SDS011;7649;52.084;7.478;2023-02-15T12:49:28;26.77;;;20.17;;
15096;SDS011;7649;52.084;7.478;2023-02-15T12:51:57;26.03;;;19.47;;
15096;SDS011;7649;52.084;7.478;2023-02-15T12:54:33;28.83;;;20.10;;
15096;SDS011;7649;52.084;7.478;2023-02-15T12:59:53;28.77;;;20.67;;
15096;SDS011;7649;52.084;7.478;2023-02-15T13:02:23;29.07;;;19.83;;
15096;SDS011;7649;52.084;7.478;2023-02-15T13:04:54;29.37;;;19.63;;
15096;SDS011;7649;52.084;7.478;2023-02-15T13:07:24;30.30;;;20.93;;
15096;SDS011;7649;52.084;7.478;2023-02-15T13:09:52;27.27;;;19.67;;
15096;SDS011;7649;52.084;7.478;2023-02-15T13:12:21;31.63;;;21.00;;
15096;SDS011;7649;52.084;7.478;2023-02-15T13:14:53;29.40;;;19.67;;
15096;SDS011;7649;52.084;7.478;2023-02-15T13:17:24;29.00;;;19.30;;
15096;SDS011;7649;52.084;7.478;2023-02-15T13:19:57;31.48;;;20.05;;
15096;SDS011;7649;52.084;7.478;2023-02-15T13:22:27;29.42;;;19.25;;
15096;SDS011;7649;52.084;7.478;2023-02-15T13:25:01;25.85;;;19.42;;
15096;SDS011;7649;52.084;7.478;2023-02-15T13:27:35;28.55;;;20.05;;
15096;SDS011;7649;52.084;7.478;2023-02-15T13:30:10;43.15;;;21.02;;
15096;SDS011;7649;52.084;7.478;2023-02-15T13:32:39;27.35;;;19.35;;
15096;SDS011;7649;52.084;7.478;2023-02-15T13:35:13;25.55;;;19.42;;
15096;SDS011;7649;52.084;7.478;2023-02-15T13:37:45;25.80;;;19.02;;
15096;SDS011;7649;52.084;7.478;2023-02-15T13:40:18;27.38;;;19.70;;
15096;SDS011;7649;52.084;7.478;2023-02-15T13:42:49;25.58;;;19.98;;
15096;SDS011;7649;52.084;7.478;2023-02-15T13:45:25;27.85;;;19.60;;
15096;SDS011;7649;52.084;7.478;2023-02-15T13:47:58;33.00;;;20.50;;
15096;SDS011;7649;52.084;7.478;2023-02-15T13:50:38;27.20;;;19.70;;
15096;SDS011;7649;52.084;7.478;2023-02-15T13:53:17;25.35;;;19.15;;
15096;SDS011;7649;52.084;7.478;2023-02-15T13:55:48;24.52;;;19.50;;
15096;SDS011;7649;52.084;7.478;2023-02-15T14:01:05;25.20;;;19.07;;
15096;SDS011;7649;52.084;7.478;2023-02-15T14:06:36;36.60;;;19.60;;
15096;SDS011;7649;52.084;7.478;2023-02-15T14:09:09;28.80;;;20.13;;
15096;SDS011;7649;52.084;7.478;2023-02-15T14:11:41;26.98;;;19.75;;
15096;SDS011;7649;52.084;7.478;2023-02-15T14:14:22;23.57;;;19.60;;
15096;SDS011;7649;52.084;7.478;2023-02-15T14:16:54;24.40;;;19.17;;
15096;SDS011;7649;52.084;7.478;2023-02-15T14:19:34;27.80;;;19.50;;
15096;SDS011;7649;52.084;7.478;2023-02-15T14:22:08;27.77;;;19.53;;
15096;SDS011;7649;52.084;7.478;2023-02-15T14:24:40;25.43;;;20.40;;
15096;SDS011;7649;52.084;7.478;2023-02-15T14:27:14;23.37;;;18.93;;
15096;SDS011;7649;52.084;7.478;2023-02-15T14:29:46;26.77;;;20.17;;
15096;SDS011;7649;52.084;7.478;2023-02-15T14:32:18;29.37;;;20.23;;
15096;SDS011;7649;52.084;7.478;2023-02-15T14:34:50;26.93;;;19.03;;
15096;SDS011;7649;52.084;7.478;2023-02-15T14:37:24;29.50;;;19.10;;
15096;SDS011;7649;52.084;7.478;2023-02-15T14:39:57;24.40;;;19.00;;
15096;SDS011;7649;52.084;7.478;2023-02-15T14:42:45;27.93;;;20.23;;
15096;SDS011;7649;52.084;7.478;2023-02-15T14:45:17;27.30;;;19.60;;
15096;SDS011;7649;52.084;7.478;2023-02-15T14:47:48;26.03;;;20.53;;
15096;SDS011;7649;52.084;7.478;2023-02-15T14:50:37;29.83;;;19.97;;
15096;SDS011;7649;52.084;7.478;2023-02-15T14:56:20;28.70;;;20.60;;
15096;SDS011;7649;52.084;7.478;2023-02-15T14:58:55;24.70;;;20.00;;
15096;SDS011;7649;52.084;7.478;2023-02-15T15:01:25;31.67;;;20.77;;
15096;SDS011;7649;52.084;7.478;2023-02-15T15:03:54;35.87;;;20.47;;
15096;SDS011;7649;52.084;7.478;2023-02-15T15:06:24;28.57;;;18.83;;
15096;SDS011;7649;52.084;7.478;2023-02-15T15:08:54;27.20;;;19.87;;
15096;SDS011;7649;52.084;7.478;2023-02-15T15:11:40;28.20;;;19.80;;
15096;SDS011;7649;52.084;7.478;2023-02-15T15:14:10;25.53;;;18.60;;
15096;SDS011;7649;52.084;7.478;2023-02-15T15:16:47;25.90;;;19.03;;
15096;SDS011;7649;52.084;7.478;2023-02-15T15:22:17;28.07;;;20.07;;
15096;SDS011;7649;52.084;7.478;2023-02-15T15:24:46;30.90;;;20.80;;
15096;SDS011;7649;52.084;7.478;2023-02-15T15:30:06;29.90;;;19.80;;